Wilson Algeciras — 9HA2471 — position and weather

sailwx.info

Track history (hours):
 
Tides and Currents Weather Stations Pressure Air Temp Water Temp Dewpoint Dewpoint Depression Visibility Wind Speed Wind Dir Waves Ship Positions

Wilson Algeciras

Last reported at 2016-Sep-30 22:32 UTC. Time now 2016-Sep-30 23:51 UTC.
Position N 53°58' E 014°15'.

Length 88 m; draft 4.1 m.

Type: Ship. MMSI: 248689000.

Date/timePositionNaut miles runAvg speedWind from/ knotsBaromVisibWave heightAir tempDewpointWater temp
2016-Sep-30 22:32N 53°58' E 014°15'0 0.0
2016-Sep-30 20:32N 53°58' E 014°15'0 0.0
2016-Sep-30 17:32N 53°58' E 014°15'0 0.0
2016-Sep-30 16:32N 53°58' E 014°15'0 0.0
2016-Sep-30 14:32N 53°58' E 014°15'4 4.1
2016-Sep-30 13:33N 54°02' E 014°19'165 7.9
2016-Sep-29 16:33N 55°13' E 018°36'8 8.2
2016-Sep-29 15:33N 55°16' E 018°50'  
2016-Sep-23 19:33N 55°24' E 014°51'18 9.0
2016-Sep-23 17:34N 55°14' E 014°25'9 9.2
2016-Sep-23 16:33N 55°11' E 014°10'10 9.7
2016-Sep-23 15:33N 55°11' E 013°52'19 9.5
2016-Sep-23 13:33N 55°13' E 013°20'28 7.0
2016-Sep-23 09:33N 55°31' E 012°42'27 9.1
2016-Sep-23 06:33N 55°58' E 012°38'16 8.1
2016-Sep-23 04:33N 56°11' E 012°20'9 9.2
2016-Sep-23 03:33N 56°16' E 012°07'9 9.1
2016-Sep-23 02:33N 56°25' E 012°01'10 9.7
2016-Sep-23 01:33N 56°34' E 011°57'10 9.8
2016-Sep-23 00:33N 56°44' E 011°52'10 9.8
2016-Sep-22 23:33N 56°53' E 011°47'28 9.5
2016-Sep-22 20:33N 57°20' E 011°29'141 8.7
2016-Sep-22 04:24N 57°51' E 007°14'7 8.4
2016-Sep-22 03:34N 57°52' E 007°01'24 8.1
2016-Sep-22 00:32N 58°04' E 006°21'7 7.4
2016-Sep-21 23:33N 58°08' E 006°10'8 8.0
2016-Sep-21 22:33N 58°14' E 005°59'24 8.0
2016-Sep-21 19:34N 58°31' E 005°27'27 8.9
2016-Sep-21 16:34N 58°55' E 005°02'  
Track history (hours):
 
Tides and Currents Weather Stations Pressure Air Temp Water Temp Dewpoint Dewpoint Depression Visibility Wind Speed Wind Dir Waves Ship Positions

Wilson Algeciras

Last reported at 2016-Sep-30 22:32 UTC. Time now 2016-Sep-30 23:51 UTC.
Position N 53°58' E 014°15'.

Length 88 m; draft 4.1 m.

Type: Ship. MMSI: 248689000.

Date/timePositionNaut miles runAvg speedWind from/ knotsBaromVisibWave heightAir tempDewpointWater temp
2016-Sep-30 22:32N 53°58' E 014°15'0 0.0
2016-Sep-30 20:32N 53°58' E 014°15'0 0.0
2016-Sep-30 17:32N 53°58' E 014°15'0 0.0
2016-Sep-30 16:32N 53°58' E 014°15'0 0.0
2016-Sep-30 14:32N 53°58' E 014°15'4 4.1
2016-Sep-30 13:33N 54°02' E 014°19'165 7.9
2016-Sep-29 16:33N 55°13' E 018°36'8 8.2
2016-Sep-29 15:33N 55°16' E 018°50'  
2016-Sep-23 19:33N 55°24' E 014°51'18 9.0
2016-Sep-23 17:34N 55°14' E 014°25'9 9.2
2016-Sep-23 16:33N 55°11' E 014°10'10 9.7
2016-Sep-23 15:33N 55°11' E 013°52'19 9.5
2016-Sep-23 13:33N 55°13' E 013°20'28 7.0
2016-Sep-23 09:33N 55°31' E 012°42'27 9.1
2016-Sep-23 06:33N 55°58' E 012°38'16 8.1
2016-Sep-23 04:33N 56°11' E 012°20'9 9.2
2016-Sep-23 03:33N 56°16' E 012°07'9 9.1
2016-Sep-23 02:33N 56°25' E 012°01'10 9.7
2016-Sep-23 01:33N 56°34' E 011°57'10 9.8
2016-Sep-23 00:33N 56°44' E 011°52'10 9.8
2016-Sep-22 23:33N 56°53' E 011°47'28 9.5
2016-Sep-22 20:33N 57°20' E 011°29'141 8.7
2016-Sep-22 04:24N 57°51' E 007°14'7 8.4
2016-Sep-22 03:34N 57°52' E 007°01'24 8.1
2016-Sep-22 00:32N 58°04' E 006°21'7 7.4
2016-Sep-21 23:33N 58°08' E 006°10'8 8.0
2016-Sep-21 22:33N 58°14' E 005°59'24 8.0
2016-Sep-21 19:34N 58°31' E 005°27'27 8.9
2016-Sep-21 16:34N 58°55' E 005°02'  

Dump ship's entire track history